sensor_id;sensor_type;location;lat;lon;timestamp;temperature;humidity
51613;DHT22;37694;51.748;14.326;2024-03-02T00:02:12;23.90;44.70
51613;DHT22;37694;51.748;14.326;2024-03-02T00:04:38;23.80;44.80
51613;DHT22;37694;51.748;14.326;2024-03-02T00:07:04;23.90;44.70
51613;DHT22;37694;51.748;14.326;2024-03-02T00:09:30;23.80;44.60
51613;DHT22;37694;51.748;14.326;2024-03-02T00:12:00;23.80;44.80
51613;DHT22;37694;51.748;14.326;2024-03-02T00:14:28;23.80;44.80
51613;DHT22;37694;51.748;14.326;2024-03-02T00:16:55;23.80;44.60
51613;DHT22;37694;51.748;14.326;2024-03-02T00:19:21;23.80;44.60
51613;DHT22;37694;51.748;14.326;2024-03-02T00:21:47;23.80;44.80
51613;DHT22;37694;51.748;14.326;2024-03-02T00:24:34;23.80;44.60
51613;DHT22;37694;51.748;14.326;2024-03-02T00:27:01;23.80;44.50
51613;DHT22;37694;51.748;14.326;2024-03-02T00:29:27;23.80;44.80
51613;DHT22;37694;51.748;14.326;2024-03-02T00:31:55;23.70;44.70
51613;DHT22;37694;51.748;14.326;2024-03-02T00:34:21;23.70;44.70
51613;DHT22;37694;51.748;14.326;2024-03-02T00:36:47;23.70;44.70
51613;DHT22;37694;51.748;14.326;2024-03-02T00:39:15;23.70;44.90
51613;DHT22;37694;51.748;14.326;2024-03-02T00:41:42;23.70;45.10
51613;DHT22;37694;51.748;14.326;2024-03-02T00:44:12;23.70;44.90
51613;DHT22;37694;51.748;14.326;2024-03-02T00:46:39;23.70;45.00
51613;DHT22;37694;51.748;14.326;2024-03-02T00:49:25;23.70;44.90
51613;DHT22;37694;51.748;14.326;2024-03-02T00:51:54;23.70;44.70
51613;DHT22;37694;51.748;14.326;2024-03-02T00:54:27;23.70;45.00
51613;DHT22;37694;51.748;14.326;2024-03-02T00:56:54;23.70;45.20
51613;DHT22;37694;51.748;14.326;2024-03-02T00:59:24;23.70;44.90
51613;DHT22;37694;51.748;14.326;2024-03-02T01:01:49;23.60;44.70
51613;DHT22;37694;51.748;14.326;2024-03-02T01:04:15;23.60;44.60
51613;DHT22;37694;51.748;14.326;2024-03-02T01:06:44;23.60;44.60
51613;DHT22;37694;51.748;14.326;2024-03-02T01:09:11;23.60;44.50
51613;DHT22;37694;51.748;14.326;2024-03-02T01:11:37;23.60;44.70
51613;DHT22;37694;51.748;14.326;2024-03-02T01:14:03;23.60;44.90
51613;DHT22;37694;51.748;14.326;2024-03-02T01:16:30;23.60;44.60
51613;DHT22;37694;51.748;14.326;2024-03-02T01:18:55;23.60;44.70
51613;DHT22;37694;51.748;14.326;2024-03-02T01:21:21;23.60;45.70
51613;DHT22;37694;51.748;14.326;2024-03-02T01:23:47;23.60;44.80
51613;DHT22;37694;51.748;14.326;2024-03-02T01:26:13;23.60;45.00
51613;DHT22;37694;51.748;14.326;2024-03-02T01:28:39;23.60;44.80
51613;DHT22;37694;51.748;14.326;2024-03-02T01:31:04;23.50;44.80
51613;DHT22;37694;51.748;14.326;2024-03-02T01:33:30;23.60;44.90
51613;DHT22;37694;51.748;14.326;2024-03-02T01:35:56;23.50;45.00
51613;DHT22;37694;51.748;14.326;2024-03-02T01:38:22;23.60;45.00
51613;DHT22;37694;51.748;14.326;2024-03-02T01:40:48;23.50;45.50
51613;DHT22;37694;51.748;14.326;2024-03-02T01:43:13;23.50;44.70
51613;DHT22;37694;51.748;14.326;2024-03-02T01:45:39;23.50;44.50
51613;DHT22;37694;51.748;14.326;2024-03-02T01:48:06;23.50;44.60
51613;DHT22;37694;51.748;14.326;2024-03-02T01:50:33;23.50;44.50
51613;DHT22;37694;51.748;14.326;2024-03-02T01:52:59;23.50;44.50
51613;DHT22;37694;51.748;14.326;2024-03-02T01:55:25;23.50;44.70
51613;DHT22;37694;51.748;14.326;2024-03-02T01:57:52;23.50;44.60
51613;DHT22;37694;51.748;14.326;2024-03-02T02:00:19;23.50;44.60
51613;DHT22;37694;51.748;14.326;2024-03-02T02:02:45;23.50;44.80
51613;DHT22;37694;51.748;14.326;2024-03-02T02:05:11;23.40;44.80
51613;DHT22;37694;51.748;14.326;2024-03-02T02:07:38;23.50;44.90
51613;DHT22;37694;51.748;14.326;2024-03-02T02:10:04;23.40;44.70
51613;DHT22;37694;51.748;14.326;2024-03-02T02:12:29;23.40;44.80
51613;DHT22;37694;51.748;14.326;2024-03-02T02:14:55;23.40;44.90
51613;DHT22;37694;51.748;14.326;2024-03-02T02:17:21;23.40;45.00
51613;DHT22;37694;51.748;14.326;2024-03-02T02:19:47;23.40;45.20
51613;DHT22;37694;51.748;14.326;2024-03-02T02:22:13;23.40;45.00
51613;DHT22;37694;51.748;14.326;2024-03-02T02:24:42;23.40;44.70
51613;DHT22;37694;51.748;14.326;2024-03-02T02:27:08;23.40;44.70
51613;DHT22;37694;51.748;14.326;2024-03-02T02:29:34;23.40;44.70
51613;DHT22;37694;51.748;14.326;2024-03-02T02:32:00;23.40;44.60
51613;DHT22;37694;51.748;14.326;2024-03-02T02:34:26;23.40;44.60
51613;DHT22;37694;51.748;14.326;2024-03-02T02:36:52;23.40;44.60
51613;DHT22;37694;51.748;14.326;2024-03-02T02:39:20;23.30;44.60
51613;DHT22;37694;51.748;14.326;2024-03-02T02:41:46;23.40;44.70
51613;DHT22;37694;51.748;14.326;2024-03-02T02:44:12;23.30;44.70
51613;DHT22;37694;51.748;14.326;2024-03-02T02:46:39;23.30;45.00
51613;DHT22;37694;51.748;14.326;2024-03-02T02:49:04;23.30;44.80
51613;DHT22;37694;51.748;14.326;2024-03-02T02:51:30;23.30;45.00
51613;DHT22;37694;51.748;14.326;2024-03-02T02:53:56;23.30;45.10
51613;DHT22;37694;51.748;14.326;2024-03-02T02:56:22;23.30;44.90
51613;DHT22;37694;51.748;14.326;2024-03-02T02:58:47;23.30;45.00
51613;DHT22;37694;51.748;14.326;2024-03-02T03:01:14;23.30;45.10
51613;DHT22;37694;51.748;14.326;2024-03-02T03:03:42;23.30;45.10
51613;DHT22;37694;51.748;14.326;2024-03-02T03:06:08;23.30;45.10
51613;DHT22;37694;51.748;14.326;2024-03-02T03:08:33;23.30;44.90
51613;DHT22;37694;51.748;14.326;2024-03-02T03:10:59;23.30;44.70
51613;DHT22;37694;51.748;14.326;2024-03-02T03:13:25;23.30;44.60
51613;DHT22;37694;51.748;14.326;2024-03-02T03:15:50;23.30;44.70
51613;DHT22;37694;51.748;14.326;2024-03-02T03:18:16;23.30;44.60
51613;DHT22;37694;51.748;14.326;2024-03-02T03:20:42;23.30;44.60
51613;DHT22;37694;51.748;14.326;2024-03-02T03:23:07;23.30;44.60
51613;DHT22;37694;51.748;14.326;2024-03-02T03:25:34;23.20;44.60
51613;DHT22;37694;51.748;14.326;2024-03-02T03:27:59;23.20;44.60
51613;DHT22;37694;51.748;14.326;2024-03-02T03:30:27;23.30;44.90
51613;DHT22;37694;51.748;14.326;2024-03-02T03:32:53;23.20;44.90
51613;DHT22;37694;51.748;14.326;2024-03-02T03:35:18;23.20;44.90
51613;DHT22;37694;51.748;14.326;2024-03-02T03:37:44;23.20;45.10
51613;DHT22;37694;51.748;14.326;2024-03-02T03:40:10;23.20;45.00
51613;DHT22;37694;51.748;14.326;2024-03-02T03:42:36;23.20;45.30
51613;DHT22;37694;51.748;14.326;2024-03-02T03:45:03;23.20;45.10
51613;DHT22;37694;51.748;14.326;2024-03-02T03:47:29;23.20;45.10
51613;DHT22;37694;51.748;14.326;2024-03-02T03:49:54;23.20;45.20
51613;DHT22;37694;51.748;14.326;2024-03-02T03:52:20;23.20;45.10
51613;DHT22;37694;51.748;14.326;2024-03-02T03:54:46;23.10;44.80
51613;DHT22;37694;51.748;14.326;2024-03-02T03:57:12;23.20;44.70
51613;DHT22;37694;51.748;14.326;2024-03-02T03:59:38;23.10;44.60
51613;DHT22;37694;51.748;14.326;2024-03-02T04:02:03;23.20;44.70
51613;DHT22;37694;51.748;14.326;2024-03-02T04:04:29;23.10;44.60
51613;DHT22;37694;51.748;14.326;2024-03-02T04:06:55;23.10;44.70
51613;DHT22;37694;51.748;14.326;2024-03-02T04:09:21;23.10;44.60
51613;DHT22;37694;51.748;14.326;2024-03-02T04:11:47;23.10;44.70
51613;DHT22;37694;51.748;14.326;2024-03-02T04:14:12;23.10;44.70
51613;DHT22;37694;51.748;14.326;2024-03-02T04:16:38;23.10;44.70
51613;DHT22;37694;51.748;14.326;2024-03-02T04:19:04;23.10;44.90
51613;DHT22;37694;51.748;14.326;2024-03-02T04:21:30;23.10;44.90
51613;DHT22;37694;51.748;14.326;2024-03-02T04:23:56;23.10;45.10
51613;DHT22;37694;51.748;14.326;2024-03-02T04:26:24;23.10;45.20
51613;DHT22;37694;51.748;14.326;2024-03-02T04:28:51;23.10;45.10
51613;DHT22;37694;51.748;14.326;2024-03-02T04:31:17;23.10;45.20
51613;DHT22;37694;51.748;14.326;2024-03-02T04:33:43;23.10;45.40
51613;DHT22;37694;51.748;14.326;2024-03-02T04:36:08;23.10;45.30
51613;DHT22;37694;51.748;14.326;2024-03-02T04:38:38;23.10;44.90
51613;DHT22;37694;51.748;14.326;2024-03-02T04:41:04;23.10;44.90
51613;DHT22;37694;51.748;14.326;2024-03-02T04:43:34;23.00;44.70
51613;DHT22;37694;51.748;14.326;2024-03-02T04:46:00;23.00;45.10
51613;DHT22;37694;51.748;14.326;2024-03-02T04:48:26;23.00;45.20
51613;DHT22;37694;51.748;14.326;2024-03-02T04:50:52;23.00;45.30
51613;DHT22;37694;51.748;14.326;2024-03-02T04:53:18;23.10;45.40
51613;DHT22;37694;51.748;14.326;2024-03-02T04:55:43;23.10;45.50
51613;DHT22;37694;51.748;14.326;2024-03-02T04:58:09;23.00;45.40
51613;DHT22;37694;51.748;14.326;2024-03-02T05:00:35;23.10;45.60
51613;DHT22;37694;51.748;14.326;2024-03-02T05:03:04;23.10;45.50
51613;DHT22;37694;51.748;14.326;2024-03-02T05:05:30;23.00;45.40
51613;DHT22;37694;51.748;14.326;2024-03-02T05:07:55;23.10;45.60
51613;DHT22;37694;51.748;14.326;2024-03-02T05:10:21;23.10;45.90
51613;DHT22;37694;51.748;14.326;2024-03-02T05:12:46;23.20;45.80
51613;DHT22;37694;51.748;14.326;2024-03-02T05:15:22;23.30;45.60
51613;DHT22;37694;51.748;14.326;2024-03-02T05:17:48;23.40;45.50
51613;DHT22;37694;51.748;14.326;2024-03-02T05:20:13;23.50;45.20
51613;DHT22;37694;51.748;14.326;2024-03-02T05:22:39;23.50;45.10
51613;DHT22;37694;51.748;14.326;2024-03-02T05:25:05;23.60;45.00
51613;DHT22;37694;51.748;14.326;2024-03-02T05:27:31;23.70;45.00
51613;DHT22;37694;51.748;14.326;2024-03-02T05:30:00;23.70;44.90
51613;DHT22;37694;51.748;14.326;2024-03-02T05:32:26;23.70;44.80
51613;DHT22;37694;51.748;14.326;2024-03-02T05:34:52;23.70;44.80
51613;DHT22;37694;51.748;14.326;2024-03-02T05:37:18;23.80;44.70
51613;DHT22;37694;51.748;14.326;2024-03-02T05:39:43;23.80;44.70
51613;DHT22;37694;51.748;14.326;2024-03-02T05:42:09;23.80;44.70
51613;DHT22;37694;51.748;14.326;2024-03-02T05:44:36;23.90;44.80
51613;DHT22;37694;51.748;14.326;2024-03-02T05:47:02;23.90;44.80
51613;DHT22;37694;51.748;14.326;2024-03-02T05:49:28;23.90;44.70
51613;DHT22;37694;51.748;14.326;2024-03-02T05:51:54;23.90;44.70
51613;DHT22;37694;51.748;14.326;2024-03-02T05:54:19;24.00;44.60
51613;DHT22;37694;51.748;14.326;2024-03-02T05:56:45;24.10;44.60
51613;DHT22;37694;51.748;14.326;2024-03-02T05:59:11;24.10;44.50
51613;DHT22;37694;51.748;14.326;2024-03-02T06:04:05;24.10;44.40
51613;DHT22;37694;51.748;14.326;2024-03-02T06:06:31;24.10;44.40
51613;DHT22;37694;51.748;14.326;2024-03-02T06:08:59;24.10;44.30
51613;DHT22;37694;51.748;14.326;2024-03-02T06:11:25;24.20;44.30
51613;DHT22;37694;51.748;14.326;2024-03-02T06:13:51;24.20;44.30
51613;DHT22;37694;51.748;14.326;2024-03-02T06:16:16;24.30;45.20
51613;DHT22;37694;51.748;14.326;2024-03-02T06:18:42;24.30;44.40
51613;DHT22;37694;51.748;14.326;2024-03-02T06:21:08;24.30;44.50
51613;DHT22;37694;51.748;14.326;2024-03-02T06:23:33;24.40;44.60
51613;DHT22;37694;51.748;14.326;2024-03-02T06:26:00;24.40;44.50
51613;DHT22;37694;51.748;14.326;2024-03-02T06:28:26;24.40;44.50
51613;DHT22;37694;51.748;14.326;2024-03-02T06:30:52;24.50;44.70
51613;DHT22;37694;51.748;14.326;2024-03-02T06:33:17;24.50;44.80
51613;DHT22;37694;51.748;14.326;2024-03-02T06:35:43;24.50;44.70
51613;DHT22;37694;51.748;14.326;2024-03-02T06:38:09;24.50;44.70
51613;DHT22;37694;51.748;14.326;2024-03-02T06:40:34;24.50;44.80
51613;DHT22;37694;51.748;14.326;2024-03-02T06:43:00;24.50;44.70
51613;DHT22;37694;51.748;14.326;2024-03-02T06:45:26;24.50;45.10
51613;DHT22;37694;51.748;14.326;2024-03-02T06:47:52;24.50;45.00
51613;DHT22;37694;51.748;14.326;2024-03-02T06:50:17;24.50;45.10
51613;DHT22;37694;51.748;14.326;2024-03-02T06:52:43;24.50;45.50
51613;DHT22;37694;51.748;14.326;2024-03-02T06:55:09;24.50;45.60
51613;DHT22;37694;51.748;14.326;2024-03-02T06:57:35;24.50;45.60
51613;DHT22;37694;51.748;14.326;2024-03-02T07:00:00;24.50;45.70
51613;DHT22;37694;51.748;14.326;2024-03-02T07:02:27;24.50;45.70
51613;DHT22;37694;51.748;14.326;2024-03-02T07:04:55;24.50;45.90
51613;DHT22;37694;51.748;14.326;2024-03-02T07:07:21;24.50;45.90
51613;DHT22;37694;51.748;14.326;2024-03-02T07:09:47;24.50;45.90
51613;DHT22;37694;51.748;14.326;2024-03-02T07:12:13;24.50;45.90
51613;DHT22;37694;51.748;14.326;2024-03-02T07:14:39;24.50;46.10
51613;DHT22;37694;51.748;14.326;2024-03-02T07:17:23;24.50;46.10
51613;DHT22;37694;51.748;14.326;2024-03-02T07:19:49;24.50;46.40
51613;DHT22;37694;51.748;14.326;2024-03-02T07:22:15;24.50;46.20
51613;DHT22;37694;51.748;14.326;2024-03-02T07:24:41;24.50;46.40
51613;DHT22;37694;51.748;14.326;2024-03-02T07:27:08;24.50;46.20
51613;DHT22;37694;51.748;14.326;2024-03-02T07:29:34;24.60;46.10
51613;DHT22;37694;51.748;14.326;2024-03-02T07:32:00;24.50;46.50
51613;DHT22;37694;51.748;14.326;2024-03-02T07:34:25;24.50;46.00
51613;DHT22;37694;51.748;14.326;2024-03-02T07:36:51;24.50;45.90
51613;DHT22;37694;51.748;14.326;2024-03-02T07:39:17;24.50;45.90
51613;DHT22;37694;51.748;14.326;2024-03-02T07:41:42;24.50;45.80
51613;DHT22;37694;51.748;14.326;2024-03-02T07:44:09;24.50;45.90
51613;DHT22;37694;51.748;14.326;2024-03-02T07:46:35;24.50;46.00
51613;DHT22;37694;51.748;14.326;2024-03-02T07:49:00;24.50;46.30
51613;DHT22;37694;51.748;14.326;2024-03-02T07:51:26;24.50;46.20
51613;DHT22;37694;51.748;14.326;2024-03-02T07:53:52;24.50;46.40
51613;DHT22;37694;51.748;14.326;2024-03-02T07:56:17;24.50;46.00
51613;DHT22;37694;51.748;14.326;2024-03-02T07:58:48;24.50;45.80
51613;DHT22;37694;51.748;14.326;2024-03-02T08:01:14;24.50;45.90
51613;DHT22;37694;51.748;14.326;2024-03-02T08:03:40;24.50;46.00
51613;DHT22;37694;51.748;14.326;2024-03-02T08:06:06;24.40;45.10
51613;DHT22;37694;51.748;14.326;2024-03-02T08:08:32;24.40;45.00
51613;DHT22;37694;51.748;14.326;2024-03-02T08:10:57;24.40;45.30
51613;DHT22;37694;51.748;14.326;2024-03-02T08:13:23;24.40;45.30
51613;DHT22;37694;51.748;14.326;2024-03-02T08:15:49;24.40;45.50
51613;DHT22;37694;51.748;14.326;2024-03-02T08:18:15;24.40;45.60
51613;DHT22;37694;51.748;14.326;2024-03-02T08:20:41;24.30;45.90
51613;DHT22;37694;51.748;14.326;2024-03-02T08:23:06;24.30;45.60
51613;DHT22;37694;51.748;14.326;2024-03-02T08:25:33;24.30;45.90
51613;DHT22;37694;51.748;14.326;2024-03-02T08:27:59;24.30;46.10
51613;DHT22;37694;51.748;14.326;2024-03-02T08:30:25;24.30;46.50
51613;DHT22;37694;51.748;14.326;2024-03-02T08:32:50;24.20;46.30
51613;DHT22;37694;51.748;14.326;2024-03-02T08:35:16;24.20;46.20
51613;DHT22;37694;51.748;14.326;2024-03-02T08:37:42;24.20;46.40
51613;DHT22;37694;51.748;14.326;2024-03-02T08:40:09;24.20;46.40
51613;DHT22;37694;51.748;14.326;2024-03-02T08:42:36;24.20;47.20
51613;DHT22;37694;51.748;14.326;2024-03-02T08:45:01;24.20;47.80
51613;DHT22;37694;51.748;14.326;2024-03-02T08:47:27;24.20;47.10
51613;DHT22;37694;51.748;14.326;2024-03-02T08:49:53;24.10;46.80
51613;DHT22;37694;51.748;14.326;2024-03-02T08:52:18;24.10;46.80
51613;DHT22;37694;51.748;14.326;2024-03-02T08:54:44;24.20;46.70
51613;DHT22;37694;51.748;14.326;2024-03-02T08:57:10;24.10;46.90
51613;DHT22;37694;51.748;14.326;2024-03-02T08:59:36;24.10;47.20
51613;DHT22;37694;51.748;14.326;2024-03-02T09:02:01;24.10;47.70
51613;DHT22;37694;51.748;14.326;2024-03-02T09:04:28;24.20;47.10
51613;DHT22;37694;51.748;14.326;2024-03-02T09:06:54;24.10;47.20
51613;DHT22;37694;51.748;14.326;2024-03-02T09:09:19;24.20;47.60
51613;DHT22;37694;51.748;14.326;2024-03-02T09:11:46;24.10;47.60
51613;DHT22;37694;51.748;14.326;2024-03-02T09:14:12;24.10;47.90
51613;DHT22;37694;51.748;14.326;2024-03-02T09:16:38;24.10;48.30
51613;DHT22;37694;51.748;14.326;2024-03-02T09:19:03;24.10;47.10
51613;DHT22;37694;51.748;14.326;2024-03-02T09:21:29;24.00;46.90
51613;DHT22;37694;51.748;14.326;2024-03-02T09:23:55;23.90;46.80
51613;DHT22;37694;51.748;14.326;2024-03-02T09:26:22;23.90;47.70
51613;DHT22;37694;51.748;14.326;2024-03-02T09:28:50;23.90;47.30
51613;DHT22;37694;51.748;14.326;2024-03-02T09:31:16;23.90;47.70
51613;DHT22;37694;51.748;14.326;2024-03-02T09:33:41;23.90;46.90
51613;DHT22;37694;51.748;14.326;2024-03-02T09:36:17;23.90;47.40
51613;DHT22;37694;51.748;14.326;2024-03-02T09:38:43;24.00;47.60
51613;DHT22;37694;51.748;14.326;2024-03-02T09:41:09;24.00;47.80
51613;DHT22;37694;51.748;14.326;2024-03-02T09:43:35;24.00;47.60
51613;DHT22;37694;51.748;14.326;2024-03-02T09:46:01;24.00;48.10
51613;DHT22;37694;51.748;14.326;2024-03-02T09:48:27;24.00;48.00
51613;DHT22;37694;51.748;14.326;2024-03-02T09:50:52;24.10;48.20
51613;DHT22;37694;51.748;14.326;2024-03-02T09:53:18;24.20;48.30
51613;DHT22;37694;51.748;14.326;2024-03-02T09:55:47;24.20;48.10
51613;DHT22;37694;51.748;14.326;2024-03-02T09:58:13;24.30;48.20
51613;DHT22;37694;51.748;14.326;2024-03-02T10:00:39;24.30;48.10
51613;DHT22;37694;51.748;14.326;2024-03-02T10:03:04;24.30;48.10
51613;DHT22;37694;51.748;14.326;2024-03-02T10:05:31;24.30;48.40
51613;DHT22;37694;51.748;14.326;2024-03-02T10:08:00;24.40;48.10
51613;DHT22;37694;51.748;14.326;2024-03-02T10:10:38;24.40;48.00
51613;DHT22;37694;51.748;14.326;2024-03-02T10:13:08;24.50;48.00
51613;DHT22;37694;51.748;14.326;2024-03-02T10:15:34;24.50;48.10
51613;DHT22;37694;51.748;14.326;2024-03-02T10:18:00;24.50;48.10
51613;DHT22;37694;51.748;14.326;2024-03-02T10:20:26;24.60;48.00
51613;DHT22;37694;51.748;14.326;2024-03-02T10:22:55;24.60;48.00
51613;DHT22;37694;51.748;14.326;2024-03-02T10:25:31;24.70;47.90
51613;DHT22;37694;51.748;14.326;2024-03-02T10:28:00;24.70;47.90
51613;DHT22;37694;51.748;14.326;2024-03-02T10:30:27;24.70;48.00
51613;DHT22;37694;51.748;14.326;2024-03-02T10:32:56;24.70;48.10
51613;DHT22;37694;51.748;14.326;2024-03-02T10:35:22;24.80;48.30
51613;DHT22;37694;51.748;14.326;2024-03-02T10:37:52;24.80;48.30
51613;DHT22;37694;51.748;14.326;2024-03-02T10:40:18;24.80;48.40
51613;DHT22;37694;51.748;14.326;2024-03-02T10:42:47;24.80;49.10
51613;DHT22;37694;51.748;14.326;2024-03-02T10:45:15;24.90;49.20
51613;DHT22;37694;51.748;14.326;2024-03-02T10:47:43;24.90;49.70
51613;DHT22;37694;51.748;14.326;2024-03-02T10:50:09;24.90;49.10
51613;DHT22;37694;51.748;14.326;2024-03-02T10:52:38;24.90;48.60
51613;DHT22;37694;51.748;14.326;2024-03-02T10:55:08;25.00;48.00
51613;DHT22;37694;51.748;14.326;2024-03-02T10:57:54;24.90;47.50
51613;DHT22;37694;51.748;14.326;2024-03-02T11:00:25;25.00;46.60
51613;DHT22;37694;51.748;14.326;2024-03-02T11:03:04;24.90;47.40
51613;DHT22;37694;51.748;14.326;2024-03-02T11:05:38;24.90;47.10
51613;DHT22;37694;51.748;14.326;2024-03-02T11:08:08;24.90;46.80
51613;DHT22;37694;51.748;14.326;2024-03-02T11:10:52;24.90;45.20
51613;DHT22;37694;51.748;14.326;2024-03-02T11:13:27;24.80;45.30
51613;DHT22;37694;51.748;14.326;2024-03-02T11:15:59;24.70;46.00
51613;DHT22;37694;51.748;14.326;2024-03-02T11:18:26;24.60;45.60
51613;DHT22;37694;51.748;14.326;2024-03-02T11:20:52;24.60;44.60
51613;DHT22;37694;51.748;14.326;2024-03-02T11:23:18;24.60;44.40
51613;DHT22;37694;51.748;14.326;2024-03-02T11:25:43;24.50;44.60
51613;DHT22;37694;51.748;14.326;2024-03-02T11:28:09;24.50;44.70
51613;DHT22;37694;51.748;14.326;2024-03-02T11:33:03;24.50;44.00
51613;DHT22;37694;51.748;14.326;2024-03-02T11:35:42;24.50;44.80
51613;DHT22;37694;51.748;14.326;2024-03-02T11:38:09;24.50;43.30
51613;DHT22;37694;51.748;14.326;2024-03-02T11:40:35;24.40;43.30
51613;DHT22;37694;51.748;14.326;2024-03-02T11:43:01;24.40;43.40
51613;DHT22;37694;51.748;14.326;2024-03-02T11:45:27;24.50;44.10
51613;DHT22;37694;51.748;14.326;2024-03-02T11:47:57;24.40;44.70
51613;DHT22;37694;51.748;14.326;2024-03-02T11:50:30;24.50;44.90
51613;DHT22;37694;51.748;14.326;2024-03-02T11:52:58;24.50;44.60
51613;DHT22;37694;51.748;14.326;2024-03-02T11:55:25;24.40;45.30
51613;DHT22;37694;51.748;14.326;2024-03-02T11:57:55;24.40;45.40
51613;DHT22;37694;51.748;14.326;2024-03-02T12:00:21;24.50;45.20
51613;DHT22;37694;51.748;14.326;2024-03-02T12:02:48;24.40;45.20
51613;DHT22;37694;51.748;14.326;2024-03-02T12:05:25;24.40;45.30
51613;DHT22;37694;51.748;14.326;2024-03-02T12:07:56;24.40;45.60
51613;DHT22;37694;51.748;14.326;2024-03-02T12:10:23;24.40;45.40
51613;DHT22;37694;51.748;14.326;2024-03-02T12:12:55;24.40;45.80
51613;DHT22;37694;51.748;14.326;2024-03-02T12:15:24;24.40;45.10
51613;DHT22;37694;51.748;14.326;2024-03-02T12:17:53;24.40;45.60
51613;DHT22;37694;51.748;14.326;2024-03-02T12:20:19;24.40;45.70
51613;DHT22;37694;51.748;14.326;2024-03-02T12:22:45;24.40;46.20
51613;DHT22;37694;51.748;14.326;2024-03-02T12:25:11;24.40;45.70
51613;DHT22;37694;51.748;14.326;2024-03-02T12:27:39;24.40;45.60
51613;DHT22;37694;51.748;14.326;2024-03-02T12:30:05;24.40;45.90
51613;DHT22;37694;51.748;14.326;2024-03-02T12:32:34;24.40;45.60
51613;DHT22;37694;51.748;14.326;2024-03-02T12:34:59;24.40;45.00
51613;DHT22;37694;51.748;14.326;2024-03-02T12:37:26;24.30;45.00
51613;DHT22;37694;51.748;14.326;2024-03-02T12:39:53;24.30;44.90
51613;DHT22;37694;51.748;14.326;2024-03-02T12:42:18;24.30;45.20
51613;DHT22;37694;51.748;14.326;2024-03-02T12:44:44;24.30;45.20
51613;DHT22;37694;51.748;14.326;2024-03-02T12:47:10;24.30;45.00
51613;DHT22;37694;51.748;14.326;2024-03-02T12:49:40;24.30;45.40
51613;DHT22;37694;51.748;14.326;2024-03-02T12:52:05;24.30;46.10
51613;DHT22;37694;51.748;14.326;2024-03-02T12:54:32;24.30;46.10
51613;DHT22;37694;51.748;14.326;2024-03-02T12:56:58;24.30;46.40
51613;DHT22;37694;51.748;14.326;2024-03-02T12:59:24;24.40;46.90
51613;DHT22;37694;51.748;14.326;2024-03-02T13:01:55;24.40;46.10
51613;DHT22;37694;51.748;14.326;2024-03-02T13:04:25;24.40;46.00
51613;DHT22;37694;51.748;14.326;2024-03-02T13:06:52;24.40;46.20
51613;DHT22;37694;51.748;14.326;2024-03-02T13:09:18;24.40;45.80
51613;DHT22;37694;51.748;14.326;2024-03-02T13:11:44;24.40;46.60
51613;DHT22;37694;51.748;14.326;2024-03-02T13:14:10;24.40;47.20
51613;DHT22;37694;51.748;14.326;2024-03-02T13:16:40;24.50;48.40
51613;DHT22;37694;51.748;14.326;2024-03-02T13:19:09;24.50;48.30
51613;DHT22;37694;51.748;14.326;2024-03-02T13:21:35;24.50;48.70
51613;DHT22;37694;51.748;14.326;2024-03-02T13:24:01;24.50;48.50
51613;DHT22;37694;51.748;14.326;2024-03-02T13:26:27;24.60;49.20
51613;DHT22;37694;51.748;14.326;2024-03-02T13:28:53;24.60;48.90
51613;DHT22;37694;51.748;14.326;2024-03-02T13:31:18;24.60;48.90
51613;DHT22;37694;51.748;14.326;2024-03-02T13:33:44;24.70;48.90
51613;DHT22;37694;51.748;14.326;2024-03-02T13:36:10;24.70;48.90
51613;DHT22;37694;51.748;14.326;2024-03-02T13:38:35;24.70;48.90
51613;DHT22;37694;51.748;14.326;2024-03-02T13:41:01;24.70;49.40
51613;DHT22;37694;51.748;14.326;2024-03-02T13:43:27;24.70;49.60
51613;DHT22;37694;51.748;14.326;2024-03-02T13:45:53;24.70;49.50
51613;DHT22;37694;51.748;14.326;2024-03-02T13:48:19;24.70;49.60
51613;DHT22;37694;51.748;14.326;2024-03-02T13:50:46;24.70;50.60
51613;DHT22;37694;51.748;14.326;2024-03-02T13:53:11;24.70;49.90
51613;DHT22;37694;51.748;14.326;2024-03-02T13:55:37;24.80;49.90
51613;DHT22;37694;51.748;14.326;2024-03-02T13:58:03;24.80;50.00
51613;DHT22;37694;51.748;14.326;2024-03-02T14:00:29;24.80;50.00
51613;DHT22;37694;51.748;14.326;2024-03-02T14:02:56;24.80;50.10
51613;DHT22;37694;51.748;14.326;2024-03-02T14:05:22;24.80;50.20
51613;DHT22;37694;51.748;14.326;2024-03-02T14:07:48;24.90;50.40
51613;DHT22;37694;51.748;14.326;2024-03-02T14:10:13;24.90;50.10
51613;DHT22;37694;51.748;14.326;2024-03-02T14:12:40;24.90;50.40
51613;DHT22;37694;51.748;14.326;2024-03-02T14:15:07;24.90;50.30
51613;DHT22;37694;51.748;14.326;2024-03-02T14:17:32;24.90;50.10
51613;DHT22;37694;51.748;14.326;2024-03-02T14:19:59;24.90;50.30
51613;DHT22;37694;51.748;14.326;2024-03-02T14:22:25;24.90;50.20
51613;DHT22;37694;51.748;14.326;2024-03-02T14:24:51;24.90;50.40
51613;DHT22;37694;51.748;14.326;2024-03-02T14:27:16;25.00;50.40
51613;DHT22;37694;51.748;14.326;2024-03-02T14:29:43;25.00;50.50
51613;DHT22;37694;51.748;14.326;2024-03-02T14:32:09;25.00;50.70
51613;DHT22;37694;51.748;14.326;2024-03-02T14:34:34;25.00;50.70
51613;DHT22;37694;51.748;14.326;2024-03-02T14:37:00;25.00;50.70
51613;DHT22;37694;51.748;14.326;2024-03-02T14:39:26;25.00;50.50
51613;DHT22;37694;51.748;14.326;2024-03-02T14:41:52;25.00;51.10
51613;DHT22;37694;51.748;14.326;2024-03-02T14:44:18;25.00;50.30
51613;DHT22;37694;51.748;14.326;2024-03-02T14:46:47;25.00;50.10
51613;DHT22;37694;51.748;14.326;2024-03-02T14:49:13;25.00;50.00
51613;DHT22;37694;51.748;14.326;2024-03-02T14:51:39;25.00;49.80
51613;DHT22;37694;51.748;14.326;2024-03-02T14:54:05;25.00;49.80
51613;DHT22;37694;51.748;14.326;2024-03-02T14:56:30;25.00;50.10
51613;DHT22;37694;51.748;14.326;2024-03-02T14:58:56;25.00;49.80
51613;DHT22;37694;51.748;14.326;2024-03-02T15:01:22;25.00;49.90
51613;DHT22;37694;51.748;14.326;2024-03-02T15:03:51;25.00;50.20
51613;DHT22;37694;51.748;14.326;2024-03-02T15:06:17;25.00;49.80
51613;DHT22;37694;51.748;14.326;2024-03-02T15:08:43;25.10;49.60
51613;DHT22;37694;51.748;14.326;2024-03-02T15:11:12;25.10;49.80
51613;DHT22;37694;51.748;14.326;2024-03-02T15:13:38;25.10;49.60
51613;DHT22;37694;51.748;14.326;2024-03-02T15:16:04;25.10;49.80
51613;DHT22;37694;51.748;14.326;2024-03-02T15:18:29;25.20;50.10